sensor_id;sensor_type;location;lat;lon;timestamp;P1;durP1;ratioP1;P2;durP2;ratioP2
11612;SDS011;5862;48.718;9.108;2022-08-04T00:03:18;1.30;;;1.13;;
11612;SDS011;5862;48.718;9.108;2022-08-04T00:11:21;1.23;;;1.13;;
11612;SDS011;5862;48.718;9.108;2022-08-04T00:13:52;0.80;;;0.80;;
11612;SDS011;5862;48.718;9.108;2022-08-04T00:16:29;0.90;;;0.85;;
11612;SDS011;5862;48.718;9.108;2022-08-04T00:19:07;2.08;;;1.25;;
11612;SDS011;5862;48.718;9.108;2022-08-04T00:21:45;1.40;;;1.23;;
11612;SDS011;5862;48.718;9.108;2022-08-04T00:24:13;1.05;;;1.02;;
11612;SDS011;5862;48.718;9.108;2022-08-04T00:26:41;1.38;;;0.93;;
11612;SDS011;5862;48.718;9.108;2022-08-04T00:29:10;0.98;;;0.88;;
11612;SDS011;5862;48.718;9.108;2022-08-04T00:31:37;1.17;;;1.08;;
11612;SDS011;5862;48.718;9.108;2022-08-04T00:34:25;1.10;;;1.00;;
11612;SDS011;5862;48.718;9.108;2022-08-04T00:36:56;2.05;;;1.10;;
11612;SDS011;5862;48.718;9.108;2022-08-04T00:39:25;1.10;;;1.00;;
11612;SDS011;5862;48.718;9.108;2022-08-04T00:47:42;1.10;;;1.00;;
11612;SDS011;5862;48.718;9.108;2022-08-04T00:59:02;1.20;;;0.90;;
11612;SDS011;5862;48.718;9.108;2022-08-04T01:10:08;1.33;;;1.20;;
11612;SDS011;5862;48.718;9.108;2022-08-04T01:12:53;1.92;;;1.05;;
11612;SDS011;5862;48.718;9.108;2022-08-04T01:18:29;1.08;;;0.98;;
11612;SDS011;5862;48.718;9.108;2022-08-04T01:26:47;0.90;;;0.90;;
11612;SDS011;5862;48.718;9.108;2022-08-04T01:29:25;1.35;;;1.25;;
11612;SDS011;5862;48.718;9.108;2022-08-04T01:32:14;1.13;;;0.95;;
11612;SDS011;5862;48.718;9.108;2022-08-04T01:34:50;1.50;;;1.00;;
11612;SDS011;5862;48.718;9.108;2022-08-04T01:40:09;2.13;;;1.02;;
11612;SDS011;5862;48.718;9.108;2022-08-04T01:42:41;0.90;;;0.80;;
11612;SDS011;5862;48.718;9.108;2022-08-04T01:45:09;1.10;;;1.00;;
11612;SDS011;5862;48.718;9.108;2022-08-04T01:47:42;1.58;;;1.30;;
11612;SDS011;5862;48.718;9.108;2022-08-04T01:50:14;1.38;;;1.27;;
11612;SDS011;5862;48.718;9.108;2022-08-04T01:52:41;1.20;;;1.10;;
11612;SDS011;5862;48.718;9.108;2022-08-04T01:55:15;1.10;;;1.00;;
11612;SDS011;5862;48.718;9.108;2022-08-04T01:57:50;1.00;;;1.00;;
11612;SDS011;5862;48.718;9.108;2022-08-04T02:00:18;2.67;;;1.02;;
11612;SDS011;5862;48.718;9.108;2022-08-04T02:02:49;0.95;;;0.70;;
11612;SDS011;5862;48.718;9.108;2022-08-04T02:05:19;1.00;;;1.00;;
11612;SDS011;5862;48.718;9.108;2022-08-04T02:07:49;2.85;;;1.10;;
11612;SDS011;5862;48.718;9.108;2022-08-04T02:10:39;0.70;;;0.70;;
11612;SDS011;5862;48.718;9.108;2022-08-04T02:21:08;1.48;;;1.23;;
11612;SDS011;5862;48.718;9.108;2022-08-04T02:23:38;0.80;;;0.80;;
11612;SDS011;5862;48.718;9.108;2022-08-04T02:26:17;1.15;;;1.00;;
11612;SDS011;5862;48.718;9.108;2022-08-04T02:28:53;1.20;;;1.00;;
11612;SDS011;5862;48.718;9.108;2022-08-04T02:34:47;1.10;;;1.00;;
11612;SDS011;5862;48.718;9.108;2022-08-04T02:36:55;2.00;;;1.23;;
11612;SDS011;5862;48.718;9.108;2022-08-04T02:39:21;2.13;;;1.13;;
11612;SDS011;5862;48.718;9.108;2022-08-04T02:41:50;1.67;;;1.15;;
11612;SDS011;5862;48.718;9.108;2022-08-04T02:44:21;1.00;;;0.95;;
11612;SDS011;5862;48.718;9.108;2022-08-04T02:46:52;1.10;;;1.00;;
11612;SDS011;5862;48.718;9.108;2022-08-04T02:49:21;1.23;;;1.13;;
11612;SDS011;5862;48.718;9.108;2022-08-04T02:51:51;1.13;;;0.90;;
11612;SDS011;5862;48.718;9.108;2022-08-04T02:54:26;2.13;;;1.05;;
11612;SDS011;5862;48.718;9.108;2022-08-04T02:56:58;1.17;;;1.08;;
11612;SDS011;5862;48.718;9.108;2022-08-04T03:00:16;1.40;;;1.30;;
11612;SDS011;5862;48.718;9.108;2022-08-04T03:02:48;1.00;;;0.95;;
11612;SDS011;5862;48.718;9.108;2022-08-04T03:27:48;0.80;;;0.80;;
11612;SDS011;5862;48.718;9.108;2022-08-04T03:30:19;1.10;;;1.00;;
11612;SDS011;5862;48.718;9.108;2022-08-04T03:56:42;1.33;;;0.93;;
11612;SDS011;5862;48.718;9.108;2022-08-04T04:16:42;1.38;;;1.27;;
11612;SDS011;5862;48.718;9.108;2022-08-04T04:19:22;2.05;;;0.93;;
11612;SDS011;5862;48.718;9.108;2022-08-04T04:21:57;1.58;;;0.90;;
11612;SDS011;5862;48.718;9.108;2022-08-04T04:35:58;1.10;;;1.00;;
11612;SDS011;5862;48.718;9.108;2022-08-04T04:44:05;1.42;;;0.80;;
11612;SDS011;5862;48.718;9.108;2022-08-04T04:46:42;0.75;;;0.75;;
11612;SDS011;5862;48.718;9.108;2022-08-04T04:54:52;1.27;;;0.80;;
11612;SDS011;5862;48.718;9.108;2022-08-04T04:57:21;1.20;;;1.10;;
11612;SDS011;5862;48.718;9.108;2022-08-04T05:00:11;1.20;;;1.10;;
11612;SDS011;5862;48.718;9.108;2022-08-04T05:08:39;1.42;;;0.90;;
11612;SDS011;5862;48.718;9.108;2022-08-04T05:14:07;1.85;;;0.90;;
11612;SDS011;5862;48.718;9.108;2022-08-04T05:17:01;1.33;;;1.23;;
11612;SDS011;5862;48.718;9.108;2022-08-04T05:22:06;1.85;;;1.05;;
11612;SDS011;5862;48.718;9.108;2022-08-04T05:24:40;1.50;;;1.20;;
11612;SDS011;5862;48.718;9.108;2022-08-04T05:27:44;1.10;;;1.00;;
11612;SDS011;5862;48.718;9.108;2022-08-04T05:30:06;1.10;;;1.00;;
11612;SDS011;5862;48.718;9.108;2022-08-04T05:32:55;2.80;;;0.95;;
11612;SDS011;5862;48.718;9.108;2022-08-04T05:35:36;0.73;;;0.73;;
11612;SDS011;5862;48.718;9.108;2022-08-04T05:38:28;1.30;;;1.20;;
11612;SDS011;5862;48.718;9.108;2022-08-04T05:40:59;0.90;;;0.90;;
11612;SDS011;5862;48.718;9.108;2022-08-04T05:43:28;1.20;;;1.10;;
11612;SDS011;5862;48.718;9.108;2022-08-04T05:45:55;1.30;;;1.20;;
11612;SDS011;5862;48.718;9.108;2022-08-04T05:48:25;1.23;;;1.13;;
11612;SDS011;5862;48.718;9.108;2022-08-04T05:50:52;1.40;;;1.30;;
11612;SDS011;5862;48.718;9.108;2022-08-04T05:53:26;1.48;;;1.27;;
11612;SDS011;5862;48.718;9.108;2022-08-04T05:55:55;2.75;;;1.42;;
11612;SDS011;5862;48.718;9.108;2022-08-04T05:58:25;1.90;;;1.55;;
11612;SDS011;5862;48.718;9.108;2022-08-04T06:00:55;1.85;;;1.75;;
11612;SDS011;5862;48.718;9.108;2022-08-04T06:03:23;1.75;;;1.40;;
11612;SDS011;5862;48.718;9.108;2022-08-04T06:05:55;1.80;;;1.40;;
11612;SDS011;5862;48.718;9.108;2022-08-04T06:08:22;1.80;;;1.70;;
11612;SDS011;5862;48.718;9.108;2022-08-04T06:10:50;1.60;;;1.30;;
11612;SDS011;5862;48.718;9.108;2022-08-04T06:13:20;1.60;;;1.50;;
11612;SDS011;5862;48.718;9.108;2022-08-04T06:16:12;1.55;;;1.45;;
11612;SDS011;5862;48.718;9.108;2022-08-04T06:18:58;1.38;;;1.27;;
11612;SDS011;5862;48.718;9.108;2022-08-04T06:21:47;1.40;;;1.30;;
11612;SDS011;5862;48.718;9.108;2022-08-04T06:24:16;1.40;;;1.30;;
11612;SDS011;5862;48.718;9.108;2022-08-04T06:26:46;1.55;;;1.45;;
11612;SDS011;5862;48.718;9.108;2022-08-04T06:29:19;2.17;;;1.55;;
11612;SDS011;5862;48.718;9.108;2022-08-04T06:31:59;1.45;;;1.35;;
11612;SDS011;5862;48.718;9.108;2022-08-04T06:34:59;1.20;;;1.10;;
11612;SDS011;5862;48.718;9.108;2022-08-04T06:37:27;1.67;;;1.58;;
11612;SDS011;5862;48.718;9.108;2022-08-04T06:40:09;1.35;;;1.25;;
11612;SDS011;5862;48.718;9.108;2022-08-04T06:42:58;1.25;;;1.15;;
11612;SDS011;5862;48.718;9.108;2022-08-04T06:45:28;1.13;;;1.13;;
11612;SDS011;5862;48.718;9.108;2022-08-04T06:48:01;1.40;;;1.30;;
11612;SDS011;5862;48.718;9.108;2022-08-04T06:50:29;1.55;;;1.30;;
11612;SDS011;5862;48.718;9.108;2022-08-04T06:53:18;1.60;;;1.50;;
11612;SDS011;5862;48.718;9.108;2022-08-04T06:55:45;1.77;;;0.93;;
11612;SDS011;5862;48.718;9.108;2022-08-04T06:58:12;1.35;;;1.10;;
11612;SDS011;5862;48.718;9.108;2022-08-04T07:00:43;1.17;;;1.08;;
11612;SDS011;5862;48.718;9.108;2022-08-04T07:03:15;1.00;;;1.00;;
11612;SDS011;5862;48.718;9.108;2022-08-04T07:05:50;1.05;;;0.90;;
11612;SDS011;5862;48.718;9.108;2022-08-04T07:08:16;1.90;;;1.80;;
11612;SDS011;5862;48.718;9.108;2022-08-04T07:10:46;1.30;;;1.20;;
11612;SDS011;5862;48.718;9.108;2022-08-04T07:13:13;1.40;;;0.95;;
11612;SDS011;5862;48.718;9.108;2022-08-04T07:15:42;1.40;;;1.30;;
11612;SDS011;5862;48.718;9.108;2022-08-04T07:18:10;1.77;;;1.00;;
11612;SDS011;5862;48.718;9.108;2022-08-04T07:20:43;1.00;;;1.00;;
11612;SDS011;5862;48.718;9.108;2022-08-04T07:23:13;1.27;;;1.17;;
11612;SDS011;5862;48.718;9.108;2022-08-04T07:25:48;1.10;;;1.00;;
11612;SDS011;5862;48.718;9.108;2022-08-04T07:28:28;1.42;;;1.23;;
11612;SDS011;5862;48.718;9.108;2022-08-04T07:30:57;1.00;;;0.90;;
11612;SDS011;5862;48.718;9.108;2022-08-04T07:33:24;0.90;;;0.90;;
11612;SDS011;5862;48.718;9.108;2022-08-04T07:35:52;1.33;;;1.10;;
11612;SDS011;5862;48.718;9.108;2022-08-04T07:38:36;1.40;;;1.30;;
11612;SDS011;5862;48.718;9.108;2022-08-04T07:41:20;1.17;;;0.98;;
11612;SDS011;5862;48.718;9.108;2022-08-04T07:44:04;0.90;;;0.90;;
11612;SDS011;5862;48.718;9.108;2022-08-04T07:46:34;1.10;;;1.00;;
11612;SDS011;5862;48.718;9.108;2022-08-04T07:49:01;1.30;;;1.20;;
11612;SDS011;5862;48.718;9.108;2022-08-04T07:51:31;1.17;;;1.10;;
11612;SDS011;5862;48.718;9.108;2022-08-04T07:54:00;0.90;;;0.90;;
11612;SDS011;5862;48.718;9.108;2022-08-04T07:56:30;0.95;;;0.90;;
11612;SDS011;5862;48.718;9.108;2022-08-04T07:59:01;0.98;;;0.88;;
11612;SDS011;5862;48.718;9.108;2022-08-04T08:01:28;0.98;;;0.95;;
11612;SDS011;5862;48.718;9.108;2022-08-04T08:03:55;1.15;;;0.80;;
11612;SDS011;5862;48.718;9.108;2022-08-04T08:06:25;2.67;;;1.00;;
11612;SDS011;5862;48.718;9.108;2022-08-04T08:09:06;1.25;;;0.90;;
11612;SDS011;5862;48.718;9.108;2022-08-04T08:11:43;0.93;;;0.90;;
11612;SDS011;5862;48.718;9.108;2022-08-04T08:14:34;1.10;;;1.00;;
11612;SDS011;5862;48.718;9.108;2022-08-04T08:17:03;0.90;;;0.90;;
11612;SDS011;5862;48.718;9.108;2022-08-04T08:19:32;1.38;;;0.80;;
11612;SDS011;5862;48.718;9.108;2022-08-04T08:22:02;0.93;;;0.90;;
11612;SDS011;5862;48.718;9.108;2022-08-04T08:24:30;1.30;;;1.00;;
11612;SDS011;5862;48.718;9.108;2022-08-04T08:27:03;1.02;;;1.00;;
11612;SDS011;5862;48.718;9.108;2022-08-04T08:29:32;1.63;;;1.00;;
11612;SDS011;5862;48.718;9.108;2022-08-04T08:32:02;1.42;;;1.25;;
11612;SDS011;5862;48.718;9.108;2022-08-04T08:34:34;0.98;;;0.80;;
11612;SDS011;5862;48.718;9.108;2022-08-04T08:37:44;1.00;;;1.00;;
11612;SDS011;5862;48.718;9.108;2022-08-04T08:46:17;1.05;;;1.00;;
11612;SDS011;5862;48.718;9.108;2022-08-04T08:58:27;1.35;;;1.27;;
11612;SDS011;5862;48.718;9.108;2022-08-04T09:04:19;1.23;;;1.13;;
11612;SDS011;5862;48.718;9.108;2022-08-04T09:17:28;0.95;;;0.90;;
11612;SDS011;5862;48.718;9.108;2022-08-04T09:20:02;3.28;;;1.30;;
11612;SDS011;5862;48.718;9.108;2022-08-04T09:22:35;1.20;;;1.10;;
11612;SDS011;5862;48.718;9.108;2022-08-04T09:25:17;2.20;;;1.20;;
11612;SDS011;5862;48.718;9.108;2022-08-04T09:27:46;1.30;;;1.20;;
11612;SDS011;5862;48.718;9.108;2022-08-04T09:30:22;1.25;;;1.20;;
11612;SDS011;5862;48.718;9.108;2022-08-04T09:35:52;2.03;;;1.23;;
11612;SDS011;5862;48.718;9.108;2022-08-04T09:38:26;1.10;;;1.00;;
11612;SDS011;5862;48.718;9.108;2022-08-04T09:41:02;1.27;;;1.20;;
11612;SDS011;5862;48.718;9.108;2022-08-04T09:44:20;1.38;;;1.27;;
11612;SDS011;5862;48.718;9.108;2022-08-04T09:50:27;1.30;;;1.20;;
11612;SDS011;5862;48.718;9.108;2022-08-04T10:01:34;1.40;;;1.30;;
11612;SDS011;5862;48.718;9.108;2022-08-04T10:04:07;1.45;;;1.35;;
11612;SDS011;5862;48.718;9.108;2022-08-04T10:06:42;1.63;;;1.52;;
11612;SDS011;5862;48.718;9.108;2022-08-04T10:18:24;1.50;;;1.40;;
11612;SDS011;5862;48.718;9.108;2022-08-04T10:20:50;1.13;;;1.02;;
11612;SDS011;5862;48.718;9.108;2022-08-04T10:29:26;1.17;;;1.10;;
11612;SDS011;5862;48.718;9.108;2022-08-04T10:31:58;1.42;;;1.33;;
11612;SDS011;5862;48.718;9.108;2022-08-04T10:34:35;1.30;;;1.20;;
11612;SDS011;5862;48.718;9.108;2022-08-04T10:45:49;1.00;;;1.00;;
11612;SDS011;5862;48.718;9.108;2022-08-04T10:51:24;1.55;;;1.20;;
11612;SDS011;5862;48.718;9.108;2022-08-04T10:57:13;1.30;;;1.20;;
11612;SDS011;5862;48.718;9.108;2022-08-04T11:00:00;1.77;;;1.20;;
11612;SDS011;5862;48.718;9.108;2022-08-04T11:02:44;2.85;;;2.30;;
11612;SDS011;5862;48.718;9.108;2022-08-04T11:08:19;1.90;;;1.08;;
11612;SDS011;5862;48.718;9.108;2022-08-04T11:10:54;2.03;;;1.40;;
11612;SDS011;5862;48.718;9.108;2022-08-04T11:13:46;1.30;;;1.20;;
11612;SDS011;5862;48.718;9.108;2022-08-04T11:16:23;1.30;;;1.20;;
11612;SDS011;5862;48.718;9.108;2022-08-04T11:21:38;1.50;;;1.05;;
11612;SDS011;5862;48.718;9.108;2022-08-04T11:24:13;1.35;;;1.20;;
11612;SDS011;5862;48.718;9.108;2022-08-04T11:26:45;1.00;;;0.90;;
11612;SDS011;5862;48.718;9.108;2022-08-04T11:31:49;1.10;;;1.02;;
11612;SDS011;5862;48.718;9.108;2022-08-04T11:39:35;1.10;;;1.00;;
11612;SDS011;5862;48.718;9.108;2022-08-04T11:42:13;1.38;;;1.27;;
11612;SDS011;5862;48.718;9.108;2022-08-04T11:44:58;1.40;;;1.30;;
11612;SDS011;5862;48.718;9.108;2022-08-04T11:47:35;1.08;;;0.98;;
11612;SDS011;5862;48.718;9.108;2022-08-04T11:50:32;2.50;;;1.60;;
11612;SDS011;5862;48.718;9.108;2022-08-04T11:53:03;1.33;;;1.23;;
11612;SDS011;5862;48.718;9.108;2022-08-04T11:55:31;2.45;;;1.50;;
11612;SDS011;5862;48.718;9.108;2022-08-04T11:58:23;1.30;;;1.20;;
11612;SDS011;5862;48.718;9.108;2022-08-04T12:03:57;1.50;;;1.40;;
11612;SDS011;5862;48.718;9.108;2022-08-04T12:17:45;7.00;;;2.65;;
11612;SDS011;5862;48.718;9.108;2022-08-04T12:20:19;1.88;;;1.42;;
11612;SDS011;5862;48.718;9.108;2022-08-04T12:23:06;2.17;;;1.50;;
11612;SDS011;5862;48.718;9.108;2022-08-04T12:25:51;1.60;;;1.45;;
11612;SDS011;5862;48.718;9.108;2022-08-04T12:31:26;1.63;;;1.52;;
11612;SDS011;5862;48.718;9.108;2022-08-04T12:34:07;2.03;;;1.45;;
11612;SDS011;5862;48.718;9.108;2022-08-04T12:36:36;1.40;;;1.30;;
11612;SDS011;5862;48.718;9.108;2022-08-04T12:39:18;2.03;;;1.65;;
11612;SDS011;5862;48.718;9.108;2022-08-04T12:41:48;1.75;;;1.40;;
11612;SDS011;5862;48.718;9.108;2022-08-04T12:44:30;2.00;;;1.80;;
11612;SDS011;5862;48.718;9.108;2022-08-04T12:47:06;1.70;;;1.60;;
11612;SDS011;5862;48.718;9.108;2022-08-04T12:49:54;1.25;;;1.15;;
11612;SDS011;5862;48.718;9.108;2022-08-04T12:52:26;1.30;;;1.20;;
11612;SDS011;5862;48.718;9.108;2022-08-04T12:55:13;1.73;;;1.63;;
11612;SDS011;5862;48.718;9.108;2022-08-04T12:57:40;1.60;;;1.50;;
11612;SDS011;5862;48.718;9.108;2022-08-04T13:00:11;2.30;;;1.55;;
11612;SDS011;5862;48.718;9.108;2022-08-04T13:02:56;1.55;;;1.45;;
11612;SDS011;5862;48.718;9.108;2022-08-04T13:05:25;1.80;;;1.67;;
11612;SDS011;5862;48.718;9.108;2022-08-04T13:07:53;1.40;;;1.30;;
11612;SDS011;5862;48.718;9.108;2022-08-04T13:10:21;1.65;;;1.55;;
11612;SDS011;5862;48.718;9.108;2022-08-04T13:12:58;1.20;;;1.10;;
11612;SDS011;5862;48.718;9.108;2022-08-04T13:15:26;1.50;;;1.40;;
11612;SDS011;5862;48.718;9.108;2022-08-04T13:20:40;1.60;;;1.50;;
11612;SDS011;5862;48.718;9.108;2022-08-04T13:23:12;1.60;;;1.50;;
11612;SDS011;5862;48.718;9.108;2022-08-04T13:25:47;1.85;;;1.15;;
11612;SDS011;5862;48.718;9.108;2022-08-04T13:28:37;1.20;;;1.13;;
11612;SDS011;5862;48.718;9.108;2022-08-04T13:31:10;1.70;;;1.40;;
11612;SDS011;5862;48.718;9.108;2022-08-04T13:33:42;1.52;;;1.40;;
11612;SDS011;5862;48.718;9.108;2022-08-04T13:36:13;2.72;;;1.85;;
11612;SDS011;5862;48.718;9.108;2022-08-04T13:38:54;1.60;;;1.50;;
11612;SDS011;5862;48.718;9.108;2022-08-04T13:41:26;1.75;;;1.55;;
11612;SDS011;5862;48.718;9.108;2022-08-04T13:43:57;1.52;;;1.42;;
11612;SDS011;5862;48.718;9.108;2022-08-04T13:46:46;1.83;;;1.63;;
11612;SDS011;5862;48.718;9.108;2022-08-04T13:49:20;1.60;;;1.50;;
11612;SDS011;5862;48.718;9.108;2022-08-04T13:52:08;1.77;;;1.67;;
11612;SDS011;5862;48.718;9.108;2022-08-04T13:57:16;2.03;;;1.50;;
11612;SDS011;5862;48.718;9.108;2022-08-04T13:59:47;1.75;;;1.60;;
11612;SDS011;5862;48.718;9.108;2022-08-04T14:05:18;1.40;;;1.30;;
11612;SDS011;5862;48.718;9.108;2022-08-04T14:07:54;1.40;;;1.30;;
11612;SDS011;5862;48.718;9.108;2022-08-04T14:10:31;1.67;;;1.58;;
11612;SDS011;5862;48.718;9.108;2022-08-04T14:12:58;1.63;;;1.52;;
11612;SDS011;5862;48.718;9.108;2022-08-04T14:15:28;2.78;;;1.75;;
11612;SDS011;5862;48.718;9.108;2022-08-04T14:18:24;2.03;;;1.50;;
11612;SDS011;5862;48.718;9.108;2022-08-04T14:23:53;1.60;;;1.50;;
11612;SDS011;5862;48.718;9.108;2022-08-04T14:29:11;2.70;;;1.70;;
11612;SDS011;5862;48.718;9.108;2022-08-04T14:32:01;2.38;;;1.50;;
11612;SDS011;5862;48.718;9.108;2022-08-04T14:34:37;1.70;;;1.60;;
11612;SDS011;5862;48.718;9.108;2022-08-04T14:37:07;1.40;;;1.30;;
11612;SDS011;5862;48.718;9.108;2022-08-04T14:39:47;1.80;;;1.70;;
11612;SDS011;5862;48.718;9.108;2022-08-04T14:42:43;1.85;;;1.52;;
11612;SDS011;5862;48.718;9.108;2022-08-04T14:45:42;1.40;;;1.30;;
11612;SDS011;5862;48.718;9.108;2022-08-04T14:48:20;1.63;;;1.30;;
11612;SDS011;5862;48.718;9.108;2022-08-04T14:50:47;1.52;;;1.40;;
11612;SDS011;5862;48.718;9.108;2022-08-04T14:53:21;1.40;;;1.30;;
11612;SDS011;5862;48.718;9.108;2022-08-04T14:55:53;2.17;;;1.75;;
11612;SDS011;5862;48.718;9.108;2022-08-04T14:58:24;1.92;;;1.67;;
11612;SDS011;5862;48.718;9.108;2022-08-04T15:01:05;1.90;;;1.80;;
11612;SDS011;5862;48.718;9.108;2022-08-04T15:03:41;2.20;;;1.95;;
11612;SDS011;5862;48.718;9.108;2022-08-04T15:06:16;1.85;;;1.52;;
11612;SDS011;5862;48.718;9.108;2022-08-04T15:08:48;1.52;;;1.42;;
11612;SDS011;5862;48.718;9.108;2022-08-04T15:11:15;2.17;;;1.60;;
11612;SDS011;5862;48.718;9.108;2022-08-04T15:13:49;1.85;;;1.60;;
11612;SDS011;5862;48.718;9.108;2022-08-04T15:16:24;3.10;;;1.50;;
11612;SDS011;5862;48.718;9.108;2022-08-04T15:18:55;1.75;;;1.65;;
11612;SDS011;5862;48.718;9.108;2022-08-04T15:21:26;1.55;;;1.45;;
11612;SDS011;5862;48.718;9.108;2022-08-04T15:23:56;1.52;;;1.20;;
11612;SDS011;5862;48.718;9.108;2022-08-04T15:29:22;1.30;;;1.20;;
11612;SDS011;5862;48.718;9.108;2022-08-04T15:31:54;1.30;;;1.15;;
11612;SDS011;5862;48.718;9.108;2022-08-04T15:34:52;1.67;;;1.58;;
11612;SDS011;5862;48.718;9.108;2022-08-04T15:37:24;1.30;;;1.20;;
11612;SDS011;5862;48.718;9.108;2022-08-04T15:40:03;1.20;;;1.10;;
11612;SDS011;5862;48.718;9.108;2022-08-04T15:47:50;1.95;;;1.70;;
11612;SDS011;5862;48.718;9.108;2022-08-04T15:50:30;1.55;;;1.45;;
11612;SDS011;5862;48.718;9.108;2022-08-04T15:55:41;1.40;;;1.30;;
11612;SDS011;5862;48.718;9.108;2022-08-04T15:58:12;1.40;;;1.30;;
11612;SDS011;5862;48.718;9.108;2022-08-04T16:21:47;1.33;;;1.20;;
11612;SDS011;5862;48.718;9.108;2022-08-04T16:24:19;2.10;;;1.52;;
11612;SDS011;5862;48.718;9.108;2022-08-04T16:26:48;2.45;;;1.40;;
11612;SDS011;5862;48.718;9.108;2022-08-04T16:34:32;1.38;;;1.27;;
11612;SDS011;5862;48.718;9.108;2022-08-04T16:37:16;1.63;;;1.52;;
11612;SDS011;5862;48.718;9.108;2022-08-04T16:39:45;1.38;;;1.27;;
11612;SDS011;5862;48.718;9.108;2022-08-04T16:50:14;1.70;;;1.60;;
11612;SDS011;5862;48.718;9.108;2022-08-04T16:52:49;1.60;;;1.50;;
11612;SDS011;5862;48.718;9.108;2022-08-04T16:55:20;1.85;;;1.75;;
11612;SDS011;5862;48.718;9.108;2022-08-04T16:57:51;2.58;;;1.70;;
11612;SDS011;5862;48.718;9.108;2022-08-04T17:00:31;1.75;;;1.65;;
11612;SDS011;5862;48.718;9.108;2022-08-04T17:03:06;1.75;;;1.65;;
11612;SDS011;5862;48.718;9.108;2022-08-04T17:05:37;2.30;;;1.40;;
11612;SDS011;5862;48.718;9.108;2022-08-04T17:08:06;2.65;;;1.70;;
11612;SDS011;5862;48.718;9.108;2022-08-04T17:10:53;1.70;;;1.60;;
11612;SDS011;5862;48.718;9.108;2022-08-04T17:16:14;2.47;;;1.50;;
11612;SDS011;5862;48.718;9.108;2022-08-04T17:18:48;1.60;;;1.50;;
11612;SDS011;5862;48.718;9.108;2022-08-04T17:21:27;1.92;;;1.80;;
11612;SDS011;5862;48.718;9.108;2022-08-04T17:23:58;1.63;;;1.40;;
11612;SDS011;5862;48.718;9.108;2022-08-04T17:26:42;1.75;;;1.65;;
11612;SDS011;5862;48.718;9.108;2022-08-04T17:29:20;1.65;;;1.20;;
11612;SDS011;5862;48.718;9.108;2022-08-04T17:32:18;1.80;;;1.70;;
11612;SDS011;5862;48.718;9.108;2022-08-04T17:34:49;1.40;;;1.30;;
11612;SDS011;5862;48.718;9.108;2022-08-04T17:37:17;1.80;;;1.70;;
11612;SDS011;5862;48.718;9.108;2022-08-04T17:40:22;1.70;;;1.60;;
11612;SDS011;5862;48.718;9.108;2022-08-04T17:43:04;3.58;;;1.70;;
11612;SDS011;5862;48.718;9.108;2022-08-04T17:57:12;3.25;;;1.90;;
11612;SDS011;5862;48.718;9.108;2022-08-04T18:02:26;1.75;;;1.65;;
11612;SDS011;5862;48.718;9.108;2022-08-04T18:04:58;1.75;;;1.60;;
11612;SDS011;5862;48.718;9.108;2022-08-04T18:07:38;2.40;;;1.70;;
11612;SDS011;5862;48.718;9.108;2022-08-04T18:10:35;1.45;;;1.35;;
11612;SDS011;5862;48.718;9.108;2022-08-04T18:13:22;2.00;;;1.80;;
11612;SDS011;5862;48.718;9.108;2022-08-04T18:16:01;1.50;;;1.40;;
11612;SDS011;5862;48.718;9.108;2022-08-04T18:19:09;2.58;;;1.80;;
11612;SDS011;5862;48.718;9.108;2022-08-04T18:21:36;1.40;;;1.30;;
11612;SDS011;5862;48.718;9.108;2022-08-04T18:24:25;1.40;;;1.30;;
11612;SDS011;5862;48.718;9.108;2022-08-04T18:27:18;2.38;;;1.20;;
11612;SDS011;5862;48.718;9.108;2022-08-04T18:29:49;1.00;;;1.00;;
11612;SDS011;5862;48.718;9.108;2022-08-04T18:32:36;2.00;;;0.90;;
11612;SDS011;5862;48.718;9.108;2022-08-04T18:35:16;0.90;;;0.90;;
11612;SDS011;5862;48.718;9.108;2022-08-04T18:37:43;1.20;;;1.10;;
11612;SDS011;5862;48.718;9.108;2022-08-04T18:40:29;1.20;;;1.08;;
11612;SDS011;5862;48.718;9.108;2022-08-04T18:43:18;2.55;;;2.35;;
11612;SDS011;5862;48.718;9.108;2022-08-04T18:46:08;5.80;;;5.30;;
11612;SDS011;5862;48.718;9.108;2022-08-04T18:48:41;6.78;;;6.18;;
11612;SDS011;5862;48.718;9.108;2022-08-04T18:51:17;3.90;;;3.60;;
11612;SDS011;5862;48.718;9.108;2022-08-04T18:53:49;2.92;;;2.65;;
11612;SDS011;5862;48.718;9.108;2022-08-04T18:56:26;2.17;;;1.98;;
11612;SDS011;5862;48.718;9.108;2022-08-04T18:59:02;1.63;;;1.52;;
11612;SDS011;5862;48.718;9.108;2022-08-04T19:01:35;1.30;;;1.20;;
11612;SDS011;5862;48.718;9.108;2022-08-04T19:04:22;1.77;;;1.45;;
11612;SDS011;5862;48.718;9.108;2022-08-04T19:07:02;1.42;;;1.33;;
11612;SDS011;5862;48.718;9.108;2022-08-04T19:09:52;1.30;;;1.20;;
11612;SDS011;5862;48.718;9.108;2022-08-04T19:12:24;1.23;;;1.10;;
11612;SDS011;5862;48.718;9.108;2022-08-04T19:14:53;2.13;;;1.33;;
11612;SDS011;5862;48.718;9.108;2022-08-04T19:17:24;1.20;;;1.00;;
11612;SDS011;5862;48.718;9.108;2022-08-04T19:20:10;1.30;;;1.20;;
11612;SDS011;5862;48.718;9.108;2022-08-04T19:22:50;1.33;;;1.23;;
11612;SDS011;5862;48.718;9.108;2022-08-04T19:25:38;1.23;;;1.13;;
11612;SDS011;5862;48.718;9.108;2022-08-04T19:28:28;1.20;;;1.10;;
11612;SDS011;5862;48.718;9.108;2022-08-04T19:31:04;1.98;;;1.00;;
11612;SDS011;5862;48.718;9.108;2022-08-04T19:33:34;1.63;;;1.30;;
11612;SDS011;5862;48.718;9.108;2022-08-04T19:36:24;1.10;;;1.10;;
11612;SDS011;5862;48.718;9.108;2022-08-04T19:38:56;2.28;;;1.13;;
11612;SDS011;5862;48.718;9.108;2022-08-04T19:41:24;1.08;;;1.02;;
11612;SDS011;5862;48.718;9.108;2022-08-04T19:43:52;1.75;;;1.00;;
11612;SDS011;5862;48.718;9.108;2022-08-04T19:46:19;2.45;;;1.20;;
11612;SDS011;5862;48.718;9.108;2022-08-04T19:48:50;1.55;;;1.45;;
11612;SDS011;5862;48.718;9.108;2022-08-04T19:51:26;1.40;;;1.27;;
11612;SDS011;5862;48.718;9.108;2022-08-04T19:53:57;1.20;;;1.10;;
11612;SDS011;5862;48.718;9.108;2022-08-04T19:56:44;2.35;;;1.30;;
11612;SDS011;5862;48.718;9.108;2022-08-04T19:59:13;1.33;;;1.23;;
11612;SDS011;5862;48.718;9.108;2022-08-04T20:01:42;2.33;;;1.30;;
11612;SDS011;5862;48.718;9.108;2022-08-04T20:04:12;1.10;;;1.00;;
11612;SDS011;5862;48.718;9.108;2022-08-04T20:06:39;1.23;;;1.13;;
11612;SDS011;5862;48.718;9.108;2022-08-04T20:09:06;1.23;;;1.13;;
11612;SDS011;5862;48.718;9.108;2022-08-04T20:11:52;1.30;;;1.20;;
11612;SDS011;5862;48.718;9.108;2022-08-04T20:14:20;2.30;;;1.30;;
11612;SDS011;5862;48.718;9.108;2022-08-04T20:17:08;1.50;;;1.40;;
11612;SDS011;5862;48.718;9.108;2022-08-04T20:19:42;1.85;;;1.30;;
11612;SDS011;5862;48.718;9.108;2022-08-04T20:22:16;1.40;;;1.30;;
11612;SDS011;5862;48.718;9.108;2022-08-04T20:25:06;1.50;;;1.40;;
11612;SDS011;5862;48.718;9.108;2022-08-04T20:27:58;1.25;;;1.15;;
11612;SDS011;5862;48.718;9.108;2022-08-04T20:30:26;1.98;;;1.20;;
11612;SDS011;5862;48.718;9.108;2022-08-04T20:32:56;1.42;;;1.33;;
11612;SDS011;5862;48.718;9.108;2022-08-04T20:35:34;1.10;;;1.00;;
11612;SDS011;5862;48.718;9.108;2022-08-04T20:38:23;1.40;;;1.30;;
11612;SDS011;5862;48.718;9.108;2022-08-04T20:40:59;1.20;;;1.10;;
11612;SDS011;5862;48.718;9.108;2022-08-04T20:43:26;1.83;;;1.20;;
11612;SDS011;5862;48.718;9.108;2022-08-04T20:45:58;1.33;;;1.23;;
11612;SDS011;5862;48.718;9.108;2022-08-04T20:48:43;1.50;;;1.33;;
11612;SDS011;5862;48.718;9.108;2022-08-04T20:51:18;1.50;;;1.23;;
11612;SDS011;5862;48.718;9.108;2022-08-04T20:53:56;1.33;;;1.23;;
11612;SDS011;5862;48.718;9.108;2022-08-04T20:56:26;1.60;;;1.38;;
11612;SDS011;5862;48.718;9.108;2022-08-04T20:58:57;1.42;;;1.33;;
11612;SDS011;5862;48.718;9.108;2022-08-04T21:01:24;1.23;;;1.13;;
11612;SDS011;5862;48.718;9.108;2022-08-04T21:03:56;1.40;;;1.30;;
11612;SDS011;5862;48.718;9.108;2022-08-04T21:06:54;1.15;;;1.05;;
11612;SDS011;5862;48.718;9.108;2022-08-04T21:09:42;1.58;;;1.40;;
11612;SDS011;5862;48.718;9.108;2022-08-04T21:12:15;1.30;;;1.20;;
11612;SDS011;5862;48.718;9.108;2022-08-04T21:14:54;2.45;;;1.35;;
11612;SDS011;5862;48.718;9.108;2022-08-04T21:17:22;1.45;;;1.35;;
11612;SDS011;5862;48.718;9.108;2022-08-04T21:20:09;1.63;;;1.52;;
11612;SDS011;5862;48.718;9.108;2022-08-04T21:22:38;1.30;;;1.20;;
11612;SDS011;5862;48.718;9.108;2022-08-04T21:25:10;1.65;;;1.55;;